KFME

Tipton Airport

Fort Meade(Odenton), Maryland, USA
METAR KFME 231121Z AUTO 00000KT 10SM CLR 04/03 A3011 RMK AO1
Observed Flight Rules
Oct-23 @ 11:21 UTC (28 minutes ago) Visual Flight Rules
Visibility Clouds
10 miles
  • Clear skies
Temperatures Readings
Current 4°C / 39°F
Dewpoint 3°C / 37°F
Humidity 93%
Altimeter 30.11" Hg
Pressure 1020 hPa
Elevation 46
METAR KFME 231121Z AUTO 00000KT 10SM CLR 04/03 A3011 RMK AO1
Observed Flight Rules
Oct-23 @ 11:21 UTC
(28 minutes ago)
VFR
Clouds
  • Clear skies
Temperature Dewpoint
4°C / 39°F 3°C / 37°F
Humidity Altimeter Pressure
93% 30.11" Hg 1020 hPa